sensor_id;sensor_type;location;lat;lon;timestamp;P1;durP1;ratioP1;P2;durP2;ratioP2
28772;SDS011;15925;51.222;5.678;2023-08-21T00:02:25;0.98;;;0.57;;
28772;SDS011;15925;51.222;5.678;2023-08-21T00:04:53;3.83;;;0.75;;
28772;SDS011;15925;51.222;5.678;2023-08-21T00:07:19;6.22;;;0.82;;
28772;SDS011;15925;51.222;5.678;2023-08-21T00:09:45;2.15;;;0.55;;
28772;SDS011;15925;51.222;5.678;2023-08-21T00:12:11;1.60;;;0.88;;
28772;SDS011;15925;51.222;5.678;2023-08-21T00:14:37;5.82;;;1.05;;
28772;SDS011;15925;51.222;5.678;2023-08-21T00:17:03;7.30;;;0.68;;
28772;SDS011;15925;51.222;5.678;2023-08-21T00:19:29;1.27;;;0.70;;
28772;SDS011;15925;51.222;5.678;2023-08-21T00:21:55;5.13;;;0.82;;
28772;SDS011;15925;51.222;5.678;2023-08-21T00:24:21;1.42;;;0.52;;
28772;SDS011;15925;51.222;5.678;2023-08-21T00:26:47;8.57;;;0.60;;
28772;SDS011;15925;51.222;5.678;2023-08-21T00:29:13;3.70;;;0.65;;
28772;SDS011;15925;51.222;5.678;2023-08-21T00:31:39;3.38;;;0.82;;
28772;SDS011;15925;51.222;5.678;2023-08-21T00:34:05;10.85;;;1.10;;
28772;SDS011;15925;51.222;5.678;2023-08-21T00:36:31;1.00;;;0.70;;
28772;SDS011;15925;51.222;5.678;2023-08-21T00:38:56;0.67;;;0.43;;
28772;SDS011;15925;51.222;5.678;2023-08-21T00:41:22;14.53;;;0.90;;
28772;SDS011;15925;51.222;5.678;2023-08-21T00:46:14;5.10;;;0.82;;
28772;SDS011;15925;51.222;5.678;2023-08-21T00:48:42;8.02;;;1.00;;
28772;SDS011;15925;51.222;5.678;2023-08-21T00:51:09;4.30;;;0.75;;
28772;SDS011;15925;51.222;5.678;2023-08-21T00:53:38;1.58;;;0.70;;
28772;SDS011;15925;51.222;5.678;2023-08-21T00:56:04;17.38;;;1.48;;
28772;SDS011;15925;51.222;5.678;2023-08-21T00:58:30;11.82;;;1.20;;
28772;SDS011;15925;51.222;5.678;2023-08-21T01:00:56;5.10;;;1.20;;
28772;SDS011;15925;51.222;5.678;2023-08-21T01:03:23;1.77;;;0.73;;
28772;SDS011;15925;51.222;5.678;2023-08-21T01:05:49;5.10;;;1.15;;
28772;SDS011;15925;51.222;5.678;2023-08-21T01:11:08;10.80;;;1.35;;
28772;SDS011;15925;51.222;5.678;2023-08-21T01:13:54;18.30;;;0.90;;
28772;SDS011;15925;51.222;5.678;2023-08-21T01:16:27;7.68;;;0.70;;
28772;SDS011;15925;51.222;5.678;2023-08-21T01:18:54;7.80;;;0.75;;
28772;SDS011;15925;51.222;5.678;2023-08-21T01:21:22;3.67;;;1.25;;
28772;SDS011;15925;51.222;5.678;2023-08-21T01:23:48;2.45;;;1.00;;
28772;SDS011;15925;51.222;5.678;2023-08-21T01:26:14;3.67;;;1.07;;
28772;SDS011;15925;51.222;5.678;2023-08-21T01:28:40;4.82;;;0.88;;
28772;SDS011;15925;51.222;5.678;2023-08-21T01:33:40;5.57;;;0.65;;
28772;SDS011;15925;51.222;5.678;2023-08-21T01:36:10;9.55;;;1.10;;
28772;SDS011;15925;51.222;5.678;2023-08-21T01:38:36;1.58;;;0.80;;
28772;SDS011;15925;51.222;5.678;2023-08-21T01:41:03;4.05;;;0.80;;
28772;SDS011;15925;51.222;5.678;2023-08-21T01:43:29;2.38;;;0.90;;
28772;SDS011;15925;51.222;5.678;2023-08-21T01:45:55;16.17;;;1.15;;
28772;SDS011;15925;51.222;5.678;2023-08-21T01:48:21;6.40;;;1.20;;
28772;SDS011;15925;51.222;5.678;2023-08-21T01:50:47;2.35;;;0.80;;
28772;SDS011;15925;51.222;5.678;2023-08-21T01:53:13;3.15;;;0.80;;
28772;SDS011;15925;51.222;5.678;2023-08-21T01:55:39;0.60;;;0.60;;
28772;SDS011;15925;51.222;5.678;2023-08-21T01:58:05;1.15;;;0.90;;
28772;SDS011;15925;51.222;5.678;2023-08-21T02:00:30;4.00;;;1.50;;
28772;SDS011;15925;51.222;5.678;2023-08-21T02:02:56;7.88;;;1.10;;
28772;SDS011;15925;51.222;5.678;2023-08-21T02:05:22;9.13;;;1.40;;
28772;SDS011;15925;51.222;5.678;2023-08-21T02:07:48;1.33;;;1.23;;
28772;SDS011;15925;51.222;5.678;2023-08-21T02:10:14;8.33;;;1.40;;
28772;SDS011;15925;51.222;5.678;2023-08-21T02:12:40;1.88;;;0.60;;
28772;SDS011;15925;51.222;5.678;2023-08-21T02:15:05;11.95;;;1.58;;
28772;SDS011;15925;51.222;5.678;2023-08-21T02:17:32;4.05;;;0.80;;
28772;SDS011;15925;51.222;5.678;2023-08-21T02:19:58;1.58;;;1.17;;
28772;SDS011;15925;51.222;5.678;2023-08-21T02:22:24;0.63;;;0.60;;
28772;SDS011;15925;51.222;5.678;2023-08-21T02:24:49;10.60;;;1.10;;
28772;SDS011;15925;51.222;5.678;2023-08-21T02:27:17;11.40;;;1.55;;
28772;SDS011;15925;51.222;5.678;2023-08-21T02:29:43;3.37;;;1.07;;
28772;SDS011;15925;51.222;5.678;2023-08-21T02:32:08;2.57;;;1.07;;
28772;SDS011;15925;51.222;5.678;2023-08-21T02:34:34;1.83;;;0.90;;
28772;SDS011;15925;51.222;5.678;2023-08-21T02:37:00;2.47;;;1.00;;
28772;SDS011;15925;51.222;5.678;2023-08-21T02:39:27;5.72;;;1.10;;
28772;SDS011;15925;51.222;5.678;2023-08-21T02:41:53;5.63;;;1.40;;
28772;SDS011;15925;51.222;5.678;2023-08-21T02:44:19;3.23;;;1.00;;
28772;SDS011;15925;51.222;5.678;2023-08-21T02:46:46;15.25;;;1.20;;
28772;SDS011;15925;51.222;5.678;2023-08-21T02:49:12;11.88;;;1.42;;
28772;SDS011;15925;51.222;5.678;2023-08-21T02:51:38;7.63;;;1.83;;
28772;SDS011;15925;51.222;5.678;2023-08-21T02:54:04;4.87;;;0.97;;
28772;SDS011;15925;51.222;5.678;2023-08-21T02:56:30;0.93;;;0.80;;
28772;SDS011;15925;51.222;5.678;2023-08-21T02:58:55;10.15;;;1.52;;
28772;SDS011;15925;51.222;5.678;2023-08-21T03:01:21;5.32;;;1.17;;
28772;SDS011;15925;51.222;5.678;2023-08-21T03:03:47;4.15;;;0.93;;
28772;SDS011;15925;51.222;5.678;2023-08-21T03:06:14;3.88;;;1.20;;
28772;SDS011;15925;51.222;5.678;2023-08-21T03:08:41;9.52;;;1.48;;
28772;SDS011;15925;51.222;5.678;2023-08-21T03:11:09;2.88;;;0.95;;
28772;SDS011;15925;51.222;5.678;2023-08-21T03:13:35;7.93;;;1.40;;
28772;SDS011;15925;51.222;5.678;2023-08-21T03:16:01;10.60;;;1.30;;
28772;SDS011;15925;51.222;5.678;2023-08-21T03:18:31;8.35;;;1.77;;
28772;SDS011;15925;51.222;5.678;2023-08-21T03:20:57;8.80;;;1.10;;
28772;SDS011;15925;51.222;5.678;2023-08-21T03:23:23;1.20;;;1.02;;
28772;SDS011;15925;51.222;5.678;2023-08-21T03:25:52;3.60;;;1.02;;
28772;SDS011;15925;51.222;5.678;2023-08-21T03:28:18;3.40;;;1.10;;
28772;SDS011;15925;51.222;5.678;2023-08-21T03:30:44;3.75;;;0.90;;
28772;SDS011;15925;51.222;5.678;2023-08-21T03:33:10;7.03;;;2.05;;
28772;SDS011;15925;51.222;5.678;2023-08-21T03:38:02;6.32;;;0.85;;
28772;SDS011;15925;51.222;5.678;2023-08-21T03:40:34;3.30;;;0.77;;
28772;SDS011;15925;51.222;5.678;2023-08-21T03:43:00;5.63;;;1.30;;
28772;SDS011;15925;51.222;5.678;2023-08-21T03:45:27;1.88;;;1.10;;
28772;SDS011;15925;51.222;5.678;2023-08-21T03:50:19;2.95;;;1.02;;
28772;SDS011;15925;51.222;5.678;2023-08-21T03:52:45;4.43;;;1.50;;
28772;SDS011;15925;51.222;5.678;2023-08-21T03:55:11;2.25;;;0.75;;
28772;SDS011;15925;51.222;5.678;2023-08-21T03:57:37;11.43;;;1.52;;
28772;SDS011;15925;51.222;5.678;2023-08-21T04:00:04;4.95;;;0.88;;
28772;SDS011;15925;51.222;5.678;2023-08-21T04:02:40;12.00;;;1.33;;
28772;SDS011;15925;51.222;5.678;2023-08-21T04:05:06;4.35;;;0.98;;
28772;SDS011;15925;51.222;5.678;2023-08-21T04:07:32;6.00;;;1.30;;
28772;SDS011;15925;51.222;5.678;2023-08-21T04:09:59;10.10;;;1.13;;
28772;SDS011;15925;51.222;5.678;2023-08-21T04:12:25;8.43;;;0.93;;
28772;SDS011;15925;51.222;5.678;2023-08-21T04:14:51;2.78;;;0.95;;
28772;SDS011;15925;51.222;5.678;2023-08-21T04:17:21;6.67;;;0.50;;
28772;SDS011;15925;51.222;5.678;2023-08-21T04:19:47;1.45;;;0.57;;
28772;SDS011;15925;51.222;5.678;2023-08-21T04:22:13;1.58;;;0.45;;
28772;SDS011;15925;51.222;5.678;2023-08-21T04:24:40;1.17;;;0.55;;
28772;SDS011;15925;51.222;5.678;2023-08-21T04:27:06;3.78;;;0.70;;
28772;SDS011;15925;51.222;5.678;2023-08-21T04:29:32;3.38;;;0.63;;
28772;SDS011;15925;51.222;5.678;2023-08-21T04:31:58;0.90;;;0.63;;
28772;SDS011;15925;51.222;5.678;2023-08-21T04:34:23;1.17;;;0.53;;
28772;SDS011;15925;51.222;5.678;2023-08-21T04:36:49;8.07;;;0.88;;
28772;SDS011;15925;51.222;5.678;2023-08-21T04:39:16;2.47;;;0.90;;
28772;SDS011;15925;51.222;5.678;2023-08-21T04:41:42;8.80;;;0.87;;
28772;SDS011;15925;51.222;5.678;2023-08-21T04:44:08;7.78;;;0.60;;
28772;SDS011;15925;51.222;5.678;2023-08-21T04:46:33;3.87;;;1.00;;
28772;SDS011;15925;51.222;5.678;2023-08-21T04:48:59;1.43;;;0.83;;
28772;SDS011;15925;51.222;5.678;2023-08-21T04:51:25;10.05;;;1.55;;
28772;SDS011;15925;51.222;5.678;2023-08-21T04:53:51;1.42;;;0.52;;
28772;SDS011;15925;51.222;5.678;2023-08-21T04:56:19;3.53;;;1.15;;
28772;SDS011;15925;51.222;5.678;2023-08-21T04:58:47;1.30;;;0.55;;
28772;SDS011;15925;51.222;5.678;2023-08-21T05:01:12;2.50;;;0.93;;
28772;SDS011;15925;51.222;5.678;2023-08-21T05:03:43;0.98;;;0.40;;
28772;SDS011;15925;51.222;5.678;2023-08-21T05:06:09;0.35;;;0.35;;
28772;SDS011;15925;51.222;5.678;2023-08-21T05:08:35;1.05;;;0.47;;
28772;SDS011;15925;51.222;5.678;2023-08-21T05:11:04;11.68;;;1.08;;
28772;SDS011;15925;51.222;5.678;2023-08-21T05:13:32;4.85;;;0.60;;
28772;SDS011;15925;51.222;5.678;2023-08-21T05:15:59;9.15;;;0.80;;
28772;SDS011;15925;51.222;5.678;2023-08-21T05:18:28;5.07;;;0.73;;
28772;SDS011;15925;51.222;5.678;2023-08-21T05:20:55;3.87;;;0.87;;
28772;SDS011;15925;51.222;5.678;2023-08-21T05:23:21;5.35;;;0.90;;
28772;SDS011;15925;51.222;5.678;2023-08-21T05:25:50;14.93;;;0.95;;
28772;SDS011;15925;51.222;5.678;2023-08-21T05:28:15;1.73;;;0.93;;
28772;SDS011;15925;51.222;5.678;2023-08-21T05:30:41;4.93;;;0.82;;
28772;SDS011;15925;51.222;5.678;2023-08-21T05:33:07;6.38;;;1.25;;
28772;SDS011;15925;51.222;5.678;2023-08-21T05:35:37;3.08;;;1.08;;
28772;SDS011;15925;51.222;5.678;2023-08-21T05:38:03;6.85;;;1.05;;
28772;SDS011;15925;51.222;5.678;2023-08-21T05:40:29;4.18;;;0.55;;
28772;SDS011;15925;51.222;5.678;2023-08-21T05:42:56;11.52;;;0.90;;
28772;SDS011;15925;51.222;5.678;2023-08-21T05:45:23;1.08;;;0.60;;
28772;SDS011;15925;51.222;5.678;2023-08-21T05:47:48;0.97;;;0.77;;
28772;SDS011;15925;51.222;5.678;2023-08-21T05:50:14;3.93;;;1.00;;
28772;SDS011;15925;51.222;5.678;2023-08-21T05:52:40;2.38;;;0.47;;
28772;SDS011;15925;51.222;5.678;2023-08-21T05:55:07;4.80;;;0.90;;
28772;SDS011;15925;51.222;5.678;2023-08-21T05:57:33;3.35;;;0.57;;
28772;SDS011;15925;51.222;5.678;2023-08-21T05:59:59;2.72;;;1.48;;
28772;SDS011;15925;51.222;5.678;2023-08-21T06:02:27;7.75;;;1.10;;
28772;SDS011;15925;51.222;5.678;2023-08-21T06:04:53;5.87;;;1.20;;
28772;SDS011;15925;51.222;5.678;2023-08-21T06:07:22;4.95;;;1.10;;
28772;SDS011;15925;51.222;5.678;2023-08-21T06:09:47;5.37;;;1.53;;
28772;SDS011;15925;51.222;5.678;2023-08-21T06:12:13;10.40;;;1.50;;
28772;SDS011;15925;51.222;5.678;2023-08-21T06:14:41;14.63;;;1.58;;
28772;SDS011;15925;51.222;5.678;2023-08-21T06:19:34;2.70;;;1.17;;
28772;SDS011;15925;51.222;5.678;2023-08-21T06:22:00;13.80;;;2.03;;
28772;SDS011;15925;51.222;5.678;2023-08-21T06:24:26;11.47;;;1.60;;
28772;SDS011;15925;51.222;5.678;2023-08-21T06:26:57;9.75;;;1.70;;
28772;SDS011;15925;51.222;5.678;2023-08-21T06:29:23;6.30;;;1.83;;
28772;SDS011;15925;51.222;5.678;2023-08-21T06:31:49;7.75;;;1.48;;
28772;SDS011;15925;51.222;5.678;2023-08-21T06:34:15;10.32;;;2.60;;
28772;SDS011;15925;51.222;5.678;2023-08-21T06:36:41;5.85;;;1.90;;
28772;SDS011;15925;51.222;5.678;2023-08-21T06:39:07;5.82;;;1.50;;
28772;SDS011;15925;51.222;5.678;2023-08-21T06:41:33;3.50;;;1.95;;
28772;SDS011;15925;51.222;5.678;2023-08-21T06:43:59;3.17;;;1.27;;
28772;SDS011;15925;51.222;5.678;2023-08-21T06:46:27;8.75;;;2.40;;
28772;SDS011;15925;51.222;5.678;2023-08-21T06:48:53;8.83;;;2.37;;
28772;SDS011;15925;51.222;5.678;2023-08-21T06:51:19;6.88;;;1.60;;
28772;SDS011;15925;51.222;5.678;2023-08-21T06:53:45;9.50;;;1.90;;
28772;SDS011;15925;51.222;5.678;2023-08-21T06:58:37;5.20;;;1.60;;
28772;SDS011;15925;51.222;5.678;2023-08-21T07:01:03;2.60;;;1.67;;
28772;SDS011;15925;51.222;5.678;2023-08-21T07:03:29;9.13;;;2.23;;
28772;SDS011;15925;51.222;5.678;2023-08-21T07:05:55;6.28;;;1.77;;
28772;SDS011;15925;51.222;5.678;2023-08-21T07:08:24;3.85;;;1.80;;
28772;SDS011;15925;51.222;5.678;2023-08-21T07:10:51;5.68;;;2.13;;
28772;SDS011;15925;51.222;5.678;2023-08-21T07:13:17;7.75;;;2.67;;
28772;SDS011;15925;51.222;5.678;2023-08-21T07:15:43;10.05;;;2.55;;
28772;SDS011;15925;51.222;5.678;2023-08-21T07:18:09;6.70;;;2.42;;
28772;SDS011;15925;51.222;5.678;2023-08-21T07:20:35;16.45;;;2.03;;
28772;SDS011;15925;51.222;5.678;2023-08-21T07:23:01;9.35;;;2.65;;
28772;SDS011;15925;51.222;5.678;2023-08-21T07:25:27;5.55;;;2.10;;
28772;SDS011;15925;51.222;5.678;2023-08-21T07:27:56;8.38;;;1.90;;
28772;SDS011;15925;51.222;5.678;2023-08-21T07:30:22;11.55;;;2.15;;
28772;SDS011;15925;51.222;5.678;2023-08-21T07:32:48;6.90;;;2.60;;
28772;SDS011;15925;51.222;5.678;2023-08-21T07:35:14;6.72;;;1.73;;
28772;SDS011;15925;51.222;5.678;2023-08-21T07:37:43;6.80;;;1.80;;
28772;SDS011;15925;51.222;5.678;2023-08-21T07:40:09;6.55;;;1.70;;
28772;SDS011;15925;51.222;5.678;2023-08-21T07:42:36;10.15;;;2.55;;
28772;SDS011;15925;51.222;5.678;2023-08-21T07:45:01;10.20;;;2.65;;
28772;SDS011;15925;51.222;5.678;2023-08-21T07:47:27;7.10;;;2.33;;
28772;SDS011;15925;51.222;5.678;2023-08-21T07:49:54;16.63;;;1.60;;
28772;SDS011;15925;51.222;5.678;2023-08-21T07:52:21;10.23;;;2.17;;
28772;SDS011;15925;51.222;5.678;2023-08-21T07:54:50;1.08;;;0.73;;
28772;SDS011;15925;51.222;5.678;2023-08-21T07:57:19;5.72;;;1.02;;
28772;SDS011;15925;51.222;5.678;2023-08-21T07:59:45;2.58;;;1.50;;
28772;SDS011;15925;51.222;5.678;2023-08-21T08:02:11;11.38;;;2.47;;
28772;SDS011;15925;51.222;5.678;2023-08-21T08:04:38;2.72;;;1.00;;
28772;SDS011;15925;51.222;5.678;2023-08-21T08:07:04;6.28;;;1.73;;
28772;SDS011;15925;51.222;5.678;2023-08-21T08:09:29;3.30;;;1.53;;
28772;SDS011;15925;51.222;5.678;2023-08-21T08:11:55;1.92;;;1.30;;
28772;SDS011;15925;51.222;5.678;2023-08-21T08:14:21;6.63;;;1.75;;
28772;SDS011;15925;51.222;5.678;2023-08-21T08:17:32;4.07;;;1.05;;
28772;SDS011;15925;51.222;5.678;2023-08-21T08:19:51;9.05;;;1.58;;
28772;SDS011;15925;51.222;5.678;2023-08-21T08:22:17;4.90;;;1.70;;
28772;SDS011;15925;51.222;5.678;2023-08-21T08:24:43;2.78;;;1.60;;
28772;SDS011;15925;51.222;5.678;2023-08-21T08:27:09;3.92;;;1.33;;
28772;SDS011;15925;51.222;5.678;2023-08-21T08:29:35;10.05;;;1.30;;
28772;SDS011;15925;51.222;5.678;2023-08-21T08:32:01;2.17;;;0.88;;
28772;SDS011;15925;51.222;5.678;2023-08-21T08:34:27;8.93;;;1.52;;
28772;SDS011;15925;51.222;5.678;2023-08-21T08:36:52;4.37;;;1.77;;
28772;SDS011;15925;51.222;5.678;2023-08-21T08:39:18;9.50;;;1.63;;
28772;SDS011;15925;51.222;5.678;2023-08-21T08:41:48;5.97;;;1.45;;
28772;SDS011;15925;51.222;5.678;2023-08-21T08:44:21;6.53;;;1.65;;
28772;SDS011;15925;51.222;5.678;2023-08-21T08:46:51;2.72;;;1.30;;
28772;SDS011;15925;51.222;5.678;2023-08-21T08:49:17;2.70;;;1.20;;
28772;SDS011;15925;51.222;5.678;2023-08-21T08:51:44;8.48;;;1.50;;
28772;SDS011;15925;51.222;5.678;2023-08-21T08:54:11;7.18;;;1.23;;
28772;SDS011;15925;51.222;5.678;2023-08-21T08:56:37;13.23;;;1.52;;
28772;SDS011;15925;51.222;5.678;2023-08-21T08:59:03;5.88;;;1.42;;
28772;SDS011;15925;51.222;5.678;2023-08-21T09:01:30;3.72;;;1.30;;
28772;SDS011;15925;51.222;5.678;2023-08-21T09:03:56;11.30;;;1.38;;
28772;SDS011;15925;51.222;5.678;2023-08-21T09:06:22;5.28;;;1.30;;
28772;SDS011;15925;51.222;5.678;2023-08-21T09:08:55;7.95;;;1.35;;
28772;SDS011;15925;51.222;5.678;2023-08-21T09:11:22;2.97;;;1.17;;
28772;SDS011;15925;51.222;5.678;2023-08-21T09:13:51;4.57;;;1.55;;
28772;SDS011;15925;51.222;5.678;2023-08-21T09:16:57;7.35;;;1.33;;
28772;SDS011;15925;51.222;5.678;2023-08-21T09:19:29;6.28;;;0.90;;
28772;SDS011;15925;51.222;5.678;2023-08-21T09:21:55;9.00;;;1.80;;
28772;SDS011;15925;51.222;5.678;2023-08-21T09:24:20;6.43;;;1.02;;
28772;SDS011;15925;51.222;5.678;2023-08-21T09:26:46;3.13;;;0.73;;
28772;SDS011;15925;51.222;5.678;2023-08-21T09:29:12;0.90;;;0.40;;
28772;SDS011;15925;51.222;5.678;2023-08-21T09:31:39;6.68;;;1.00;;
28772;SDS011;15925;51.222;5.678;2023-08-21T09:34:05;4.38;;;1.02;;
28772;SDS011;15925;51.222;5.678;2023-08-21T09:36:31;11.00;;;0.88;;
28772;SDS011;15925;51.222;5.678;2023-08-21T09:38:57;0.40;;;0.17;;
28772;SDS011;15925;51.222;5.678;2023-08-21T09:45:05;0.50;;;0.40;;
28772;SDS011;15925;51.222;5.678;2023-08-21T09:47:32;10.07;;;0.60;;
28772;SDS011;15925;51.222;5.678;2023-08-21T09:49:59;8.82;;;0.82;;
28772;SDS011;15925;51.222;5.678;2023-08-21T09:54:52;2.67;;;0.70;;
28772;SDS011;15925;51.222;5.678;2023-08-21T09:57:19;4.90;;;0.45;;
28772;SDS011;15925;51.222;5.678;2023-08-21T09:59:48;8.15;;;0.45;;
28772;SDS011;15925;51.222;5.678;2023-08-21T10:02:23;4.10;;;0.70;;
28772;SDS011;15925;51.222;5.678;2023-08-21T10:04:50;1.02;;;0.40;;
28772;SDS011;15925;51.222;5.678;2023-08-21T10:07:19;4.18;;;0.52;;
28772;SDS011;15925;51.222;5.678;2023-08-21T10:09:47;4.20;;;0.50;;
28772;SDS011;15925;51.222;5.678;2023-08-21T10:14:42;7.53;;;0.50;;
28772;SDS011;15925;51.222;5.678;2023-08-21T10:17:08;1.42;;;0.30;;
28772;SDS011;15925;51.222;5.678;2023-08-21T10:19:35;9.90;;;0.63;;
28772;SDS011;15925;51.222;5.678;2023-08-21T10:22:00;4.32;;;0.68;;
28772;SDS011;15925;51.222;5.678;2023-08-21T10:24:28;3.28;;;0.75;;
28772;SDS011;15925;51.222;5.678;2023-08-21T10:27:03;2.60;;;0.73;;
28772;SDS011;15925;51.222;5.678;2023-08-21T10:29:31;3.92;;;0.52;;
28772;SDS011;15925;51.222;5.678;2023-08-21T10:32:03;4.60;;;0.68;;
28772;SDS011;15925;51.222;5.678;2023-08-21T10:34:31;0.60;;;0.50;;
28772;SDS011;15925;51.222;5.678;2023-08-21T10:39:31;2.80;;;0.52;;
28772;SDS011;15925;51.222;5.678;2023-08-21T10:50:03;15.07;;;0.73;;
28772;SDS011;15925;51.222;5.678;2023-08-21T10:52:40;5.78;;;0.88;;
28772;SDS011;15925;51.222;5.678;2023-08-21T10:55:07;1.00;;;0.40;;
28772;SDS011;15925;51.222;5.678;2023-08-21T10:57:36;3.67;;;0.70;;
28772;SDS011;15925;51.222;5.678;2023-08-21T11:00:07;1.17;;;0.60;;
28772;SDS011;15925;51.222;5.678;2023-08-21T11:02:38;1.27;;;0.50;;
28772;SDS011;15925;51.222;5.678;2023-08-21T11:05:05;7.47;;;1.35;;
28772;SDS011;15925;51.222;5.678;2023-08-21T11:07:40;1.75;;;0.55;;
28772;SDS011;15925;51.222;5.678;2023-08-21T11:10:15;1.05;;;0.30;;
28772;SDS011;15925;51.222;5.678;2023-08-21T11:12:54;2.10;;;0.40;;
28772;SDS011;15925;51.222;5.678;2023-08-21T11:15:21;2.72;;;0.70;;
28772;SDS011;15925;51.222;5.678;2023-08-21T11:17:58;3.47;;;0.52;;
28772;SDS011;15925;51.222;5.678;2023-08-21T11:20:29;3.55;;;0.90;;
28772;SDS011;15925;51.222;5.678;2023-08-21T11:22:56;2.72;;;0.30;;
28772;SDS011;15925;51.222;5.678;2023-08-21T11:25:23;2.78;;;1.00;;
28772;SDS011;15925;51.222;5.678;2023-08-21T11:27:49;2.75;;;0.70;;
28772;SDS011;15925;51.222;5.678;2023-08-21T11:30:15;2.70;;;0.30;;
28772;SDS011;15925;51.222;5.678;2023-08-21T11:32:42;0.93;;;0.60;;
28772;SDS011;15925;51.222;5.678;2023-08-21T11:35:08;6.22;;;0.98;;
28772;SDS011;15925;51.222;5.678;2023-08-21T11:37:34;1.65;;;0.40;;
28772;SDS011;15925;51.222;5.678;2023-08-21T11:40:08;1.83;;;0.50;;
28772;SDS011;15925;51.222;5.678;2023-08-21T11:42:34;2.00;;;0.60;;
28772;SDS011;15925;51.222;5.678;2023-08-21T11:45:00;2.20;;;0.55;;
28772;SDS011;15925;51.222;5.678;2023-08-21T11:47:31;2.55;;;0.50;;
28772;SDS011;15925;51.222;5.678;2023-08-21T11:50:02;3.78;;;0.90;;
28772;SDS011;15925;51.222;5.678;2023-08-21T11:52:30;8.43;;;0.93;;
28772;SDS011;15925;51.222;5.678;2023-08-21T11:54:57;3.85;;;1.02;;
28772;SDS011;15925;51.222;5.678;2023-08-21T11:57:23;5.53;;;0.60;;
28772;SDS011;15925;51.222;5.678;2023-08-21T11:59:53;4.22;;;0.85;;
28772;SDS011;15925;51.222;5.678;2023-08-21T12:02:23;3.55;;;0.65;;
28772;SDS011;15925;51.222;5.678;2023-08-21T12:04:54;2.13;;;0.50;;
28772;SDS011;15925;51.222;5.678;2023-08-21T12:07:26;5.63;;;0.65;;
28772;SDS011;15925;51.222;5.678;2023-08-21T12:09:52;8.30;;;0.80;;
28772;SDS011;15925;51.222;5.678;2023-08-21T12:12:18;3.72;;;1.05;;
28772;SDS011;15925;51.222;5.678;2023-08-21T12:14:43;0.95;;;0.70;;
28772;SDS011;15925;51.222;5.678;2023-08-21T12:17:09;1.65;;;0.45;;
28772;SDS011;15925;51.222;5.678;2023-08-21T12:19:35;1.17;;;0.65;;
28772;SDS011;15925;51.222;5.678;2023-08-21T12:24:27;3.60;;;0.35;;
28772;SDS011;15925;51.222;5.678;2023-08-21T12:26:53;1.67;;;0.63;;
28772;SDS011;15925;51.222;5.678;2023-08-21T12:29:19;1.17;;;0.55;;
28772;SDS011;15925;51.222;5.678;2023-08-21T12:31:45;7.78;;;1.50;;
28772;SDS011;15925;51.222;5.678;2023-08-21T12:34:12;1.30;;;0.60;;
28772;SDS011;15925;51.222;5.678;2023-08-21T12:36:37;1.42;;;0.80;;
28772;SDS011;15925;51.222;5.678;2023-08-21T12:39:04;2.90;;;0.55;;
28772;SDS011;15925;51.222;5.678;2023-08-21T12:43:58;1.50;;;0.50;;
28772;SDS011;15925;51.222;5.678;2023-08-21T12:46:24;4.82;;;0.90;;
28772;SDS011;15925;51.222;5.678;2023-08-21T12:48:53;3.50;;;0.80;;
28772;SDS011;15925;51.222;5.678;2023-08-21T12:51:19;4.28;;;0.52;;
28772;SDS011;15925;51.222;5.678;2023-08-21T12:53:45;1.30;;;0.57;;
28772;SDS011;15925;51.222;5.678;2023-08-21T12:56:10;2.97;;;0.70;;
28772;SDS011;15925;51.222;5.678;2023-08-21T12:58:36;1.80;;;0.77;;
28772;SDS011;15925;51.222;5.678;2023-08-21T13:01:02;1.55;;;0.73;;
28772;SDS011;15925;51.222;5.678;2023-08-21T13:03:32;6.55;;;0.57;;
28772;SDS011;15925;51.222;5.678;2023-08-21T13:05:58;2.55;;;0.75;;
28772;SDS011;15925;51.222;5.678;2023-08-21T13:08:24;0.95;;;0.77;;
28772;SDS011;15925;51.222;5.678;2023-08-21T13:10:50;1.35;;;0.70;;
28772;SDS011;15925;51.222;5.678;2023-08-21T13:13:16;1.67;;;0.40;;
28772;SDS011;15925;51.222;5.678;2023-08-21T13:15:42;9.90;;;1.05;;
28772;SDS011;15925;51.222;5.678;2023-08-21T13:18:10;0.63;;;0.63;;
28772;SDS011;15925;51.222;5.678;2023-08-21T13:20:37;8.60;;;0.73;;
28772;SDS011;15925;51.222;5.678;2023-08-21T13:23:02;6.07;;;0.60;;
28772;SDS011;15925;51.222;5.678;2023-08-21T13:25:28;2.53;;;0.68;;
28772;SDS011;15925;51.222;5.678;2023-08-21T13:27:55;0.75;;;0.30;;
28772;SDS011;15925;51.222;5.678;2023-08-21T13:30:21;1.65;;;0.68;;
28772;SDS011;15925;51.222;5.678;2023-08-21T13:32:47;2.50;;;0.80;;
28772;SDS011;15925;51.222;5.678;2023-08-21T13:35:13;1.00;;;0.57;;
28772;SDS011;15925;51.222;5.678;2023-08-21T13:37:39;4.63;;;0.60;;
28772;SDS011;15925;51.222;5.678;2023-08-21T13:40:05;6.15;;;0.63;;
28772;SDS011;15925;51.222;5.678;2023-08-21T13:42:37;5.80;;;0.63;;
28772;SDS011;15925;51.222;5.678;2023-08-21T13:45:06;2.38;;;0.65;;
28772;SDS011;15925;51.222;5.678;2023-08-21T13:47:39;2.80;;;0.88;;
28772;SDS011;15925;51.222;5.678;2023-08-21T13:50:06;1.20;;;0.50;;
28772;SDS011;15925;51.222;5.678;2023-08-21T13:52:33;2.35;;;0.70;;
28772;SDS011;15925;51.222;5.678;2023-08-21T13:57:25;0.30;;;0.22;;
28772;SDS011;15925;51.222;5.678;2023-08-21T13:59:52;7.00;;;0.77;;
28772;SDS011;15925;51.222;5.678;2023-08-21T14:02:18;0.30;;;0.30;;
28772;SDS011;15925;51.222;5.678;2023-08-21T14:04:44;3.13;;;0.57;;
28772;SDS011;15925;51.222;5.678;2023-08-21T14:07:11;5.68;;;0.77;;
28772;SDS011;15925;51.222;5.678;2023-08-21T14:09:38;2.72;;;0.60;;
28772;SDS011;15925;51.222;5.678;2023-08-21T14:12:07;3.00;;;0.63;;
28772;SDS011;15925;51.222;5.678;2023-08-21T14:14:34;1.13;;;0.40;;
28772;SDS011;15925;51.222;5.678;2023-08-21T14:17:01;1.75;;;0.80;;
28772;SDS011;15925;51.222;5.678;2023-08-21T14:21:53;1.45;;;0.75;;
28772;SDS011;15925;51.222;5.678;2023-08-21T14:24:19;6.45;;;0.90;;
28772;SDS011;15925;51.222;5.678;2023-08-21T14:26:45;1.02;;;0.88;;
28772;SDS011;15925;51.222;5.678;2023-08-21T14:29:11;4.03;;;0.60;;
28772;SDS011;15925;51.222;5.678;2023-08-21T14:31:37;6.70;;;0.55;;
28772;SDS011;15925;51.222;5.678;2023-08-21T14:34:03;0.65;;;0.43;;
28772;SDS011;15925;51.222;5.678;2023-08-21T14:36:29;2.92;;;0.63;;
28772;SDS011;15925;51.222;5.678;2023-08-21T14:38:54;0.30;;;0.30;;
28772;SDS011;15925;51.222;5.678;2023-08-21T14:41:20;1.23;;;0.43;;
28772;SDS011;15925;51.222;5.678;2023-08-21T14:43:47;1.70;;;0.65;;
28772;SDS011;15925;51.222;5.678;2023-08-21T14:46:13;7.55;;;1.05;;
28772;SDS011;15925;51.222;5.678;2023-08-21T14:48:40;6.88;;;1.10;;
28772;SDS011;15925;51.222;5.678;2023-08-21T14:51:06;3.33;;;0.50;;
28772;SDS011;15925;51.222;5.678;2023-08-21T14:55:58;6.72;;;0.80;;
28772;SDS011;15925;51.222;5.678;2023-08-21T14:58:24;3.92;;;0.82;;
28772;SDS011;15925;51.222;5.678;2023-08-21T15:00:53;5.53;;;0.93;;
28772;SDS011;15925;51.222;5.678;2023-08-21T15:03:19;3.00;;;0.50;;
28772;SDS011;15925;51.222;5.678;2023-08-21T15:05:46;3.10;;;0.85;;
28772;SDS011;15925;51.222;5.678;2023-08-21T15:08:12;1.95;;;0.65;;
28772;SDS011;15925;51.222;5.678;2023-08-21T15:10:38;0.82;;;0.50;;
28772;SDS011;15925;51.222;5.678;2023-08-21T15:13:04;3.70;;;0.70;;
28772;SDS011;15925;51.222;5.678;2023-08-21T15:15:30;1.02;;;0.57;;
28772;SDS011;15925;51.222;5.678;2023-08-21T15:17:56;2.90;;;0.70;;
28772;SDS011;15925;51.222;5.678;2023-08-21T15:20:22;3.17;;;0.82;;
28772;SDS011;15925;51.222;5.678;2023-08-21T15:26:05;3.03;;;0.63;;
28772;SDS011;15925;51.222;5.678;2023-08-21T15:28:31;8.07;;;1.20;;
28772;SDS011;15925;51.222;5.678;2023-08-21T15:30:57;2.83;;;0.45;;
28772;SDS011;15925;51.222;5.678;2023-08-21T15:33:23;1.90;;;0.68;;
28772;SDS011;15925;51.222;5.678;2023-08-21T15:35:49;7.93;;;0.77;;
28772;SDS011;15925;51.222;5.678;2023-08-21T15:38:14;2.60;;;0.80;;